Time;durP1;ratioP1;P1;durP2;ratioP2;P2;SDS_P1;SDS_P2;PMS_P1;PMS_P2;Temp;Humidity;BMP_temperature;BMP_pressure;BME280_temperature;BME280_humidity;BME280_pressure;Samples;Min_cycle;Max_cycle;Signal;HPM_P1;HPM_P2
2022/12/04 00:01:09;;;;;;;26.50;12.93;;;;;;;-6.99;69.39;102499.84;5019870;28;20063;-68
2022/12/04 00:03:34;;;;;;;12.55;6.78;;;;;;;-7.09;69.47;102500.25;5037564;28;20135;-70
2022/12/04 00:06:09;;;;;;;16.15;8.43;;;;;;;-6.97;69.81;102486.94;5037433;28;20042;-72
2022/12/04 00:08:34;;;;;;;17.80;8.93;;;;;;;-7.14;70.06;102499.16;5037713;28;20055;-70
2022/12/04 00:10:59;;;;;;;21.75;11.52;;;;;;;-7.34;70.17;102494.78;5029500;28;20140;-71
2022/12/04 00:13:23;;;;;;;18.80;9.27;;;;;;;-7.29;70.80;102498.44;4990046;28;20155;-67
2022/12/04 00:15:48;;;;;;;15.52;8.82;;;;;;;-7.28;70.48;102497.63;5030580;28;20145;-71
2022/12/04 00:18:12;;;;;;;19.65;8.90;;;;;;;-7.30;70.37;102495.78;5037124;28;20044;-67
2022/12/04 00:20:40;;;;;;;23.20;9.00;;;;;;;-7.30;69.66;102496.66;5016622;28;20127;-77
2022/12/04 00:23:05;;;;;;;24.75;11.40;;;;;;;-7.49;70.60;102501.81;5049483;28;20044;-72
2022/12/04 00:25:30;;;;;;;21.02;11.25;;;;;;;-7.56;70.55;102494.59;5020086;28;20512;-74
2022/12/04 00:27:55;;;;;;;14.55;8.60;;;;;;;-7.43;70.80;102497.81;5019811;28;20495;-72
2022/12/04 00:30:19;;;;;;;20.98;11.98;;;;;;;-7.53;70.71;102498.19;5036677;28;20063;-73
2022/12/04 00:32:44;;;;;;;29.17;11.80;;;;;;;-7.56;70.84;102495.44;5032624;28;20396;-70
2022/12/04 00:35:09;;;;;;;26.20;10.35;;;;;;;-7.61;70.91;102489.19;5017232;28;20032;-76
2022/12/04 00:37:33;;;;;;;25.08;10.98;;;;;;;-7.62;71.10;102496.88;5030605;28;20092;-72
2022/12/04 00:39:58;;;;;;;23.58;11.45;;;;;;;-7.69;71.44;102487.94;5017731;28;20387;-75
2022/12/04 00:42:23;;;;;;;21.15;9.90;;;;;;;-7.67;71.66;102494.06;5037994;28;20056;-77
2022/12/04 00:44:47;;;;;;;9.20;4.60;;;;;;;-7.57;71.48;102493.69;5025914;28;20376;-72
2022/12/04 00:47:12;;;;;;;17.70;8.52;;;;;;;-7.49;71.13;102489.75;5039030;28;20130;-73
2022/12/04 00:49:36;;;;;;;11.27;6.45;;;;;;;-7.50;71.07;102494.88;5039314;28;20044;-73
2022/12/04 00:52:01;;;;;;;18.10;9.30;;;;;;;-7.46;70.68;102507.16;5021797;28;20407;-74
2022/12/04 00:54:25;;;;;;;16.83;8.88;;;;;;;-7.59;70.78;102502.22;5021880;28;20064;-72
2022/12/04 00:56:50;;;;;;;17.25;7.85;;;;;;;-7.67;70.91;102495.78;5005224;28;20073;-74
2022/12/04 00:59:15;;;;;;;12.55;5.35;;;;;;;-7.60;70.80;102505.59;5010981;28;20049;-74
2022/12/04 01:01:40;;;;;;;19.25;10.25;;;;;;;-7.66;70.69;102505.28;5038771;28;20101;-72
2022/12/04 01:04:04;;;;;;;19.98;11.15;;;;;;;-7.75;70.70;102508.34;5019178;28;20118;-75
2022/12/04 01:06:32;;;;;;;11.63;6.93;;;;;;;-7.69;70.75;102508.66;5002228;28;20465;-71
2022/12/04 01:08:58;;;;;;;7.50;5.03;;;;;;;-7.49;69.91;102509.59;5020710;28;20043;-72
2022/12/04 01:11:25;;;;;;;16.13;8.20;;;;;;;-7.51;68.98;102503.44;5036043;28;20065;-70
2022/12/04 01:13:50;;;;;;;22.38;9.68;;;;;;;-7.73;68.87;102512.78;5038088;28;20085;-68
2022/12/04 01:16:23;;;;;;;16.40;7.28;;;;;;;-7.74;69.57;102512.72;5037517;28;20040;-68
2022/12/04 01:18:48;;;;;;;15.82;9.02;;;;;;;-7.73;69.13;102520.56;5057031;28;20061;-71
2022/12/04 01:21:12;;;;;;;11.25;6.10;;;;;;;-7.73;69.25;102515.38;5053418;28;20127;-70
2022/12/04 01:23:37;;;;;;;13.13;8.07;;;;;;;-7.79;69.09;102540.09;5052580;28;20045;-72
2022/12/04 01:26:02;;;;;;;11.25;6.88;;;;;;;-7.81;68.99;102519.31;5048591;28;20418;-70
2022/12/04 01:28:27;;;;;;;11.00;5.43;;;;;;;-7.94;69.17;102514.34;5021067;28;20043;-70
2022/12/04 01:30:59;;;;;;;19.58;8.68;;;;;;;-7.79;68.78;102521.97;5020565;28;20036;-68
2022/12/04 01:33:24;;;;;;;10.48;5.72;;;;;;;-7.83;68.63;102515.75;5037586;28;20054;-71
2022/12/04 01:35:54;;;;;;;21.48;8.98;;;;;;;-8.08;69.23;102528.28;5020370;28;20128;-71
2022/12/04 01:38:19;;;;;;;20.65;9.98;;;;;;;-8.22;69.99;102526.69;5055379;28;20192;-71
2022/12/04 01:40:44;;;;;;;20.77;9.95;;;;;;;-8.16;69.68;102524.44;5037234;28;20119;-71
2022/12/04 01:43:11;;;;;;;15.10;7.93;;;;;;;-8.01;69.26;102520.00;5055121;28;20529;-67
2022/12/04 01:45:41;;;;;;;22.08;10.15;;;;;;;-8.16;69.39;102527.03;5036198;28;20039;-70
2022/12/04 01:48:16;;;;;;;21.38;10.40;;;;;;;-8.25;69.85;102514.53;5030806;28;20524;-70
2022/12/04 01:50:43;;;;;;;14.80;7.28;;;;;;;-8.11;69.87;102518.66;5053367;28;20043;-70
2022/12/04 01:53:08;;;;;;;18.52;9.38;;;;;;;-8.02;69.64;102533.78;5023681;28;20043;-72
2022/12/04 01:55:32;;;;;;;10.38;5.82;;;;;;;-8.08;69.66;102529.19;5022094;28;20044;-71
2022/12/04 01:58:01;;;;;;;16.52;8.00;;;;;;;-8.37;69.69;102515.63;5028400;28;20427;-75
2022/12/04 02:00:25;;;;;;;17.77;8.02;;;;;;;-8.12;70.00;102518.59;5005063;28;20037;-71
2022/12/04 02:02:50;;;;;;;11.10;5.38;;;;;;;-8.09;69.07;102518.75;5034704;28;20040;-66
2022/12/04 02:05:19;;;;;;;15.52;7.85;;;;;;;-8.31;69.34;102513.34;5026329;28;20044;-67
2022/12/04 02:07:48;;;;;;;23.35;9.80;;;;;;;-8.41;70.04;102516.28;5033267;28;20044;-69
2022/12/04 02:10:13;;;;;;;12.70;6.45;;;;;;;-8.20;69.85;102517.31;4975384;28;20119;-68
2022/12/04 02:13:00;;;;;;;12.02;6.70;;;;;;;-8.23;69.49;102510.28;5026718;28;20183;-68
2022/12/04 02:15:44;;;;;;;10.82;5.38;;;;;;;-8.07;69.07;102522.31;5032246;28;20510;-71
2022/12/04 02:18:12;;;;;;;19.10;9.00;;;;;;;-8.34;69.42;102519.25;5025935;28;20043;-71
2022/12/04 02:20:49;;;;;;;12.32;7.25;;;;;;;-8.25;69.71;102518.81;5035168;28;20105;-69
2022/12/04 02:23:19;;;;;;;9.07;4.25;;;;;;;-8.19;69.94;102516.50;5010760;28;20045;-77
2022/12/04 02:25:55;;;;;;;21.52;10.65;;;;;;;-8.40;69.78;102521.53;5007855;28;20549;-73
2022/12/04 02:28:27;;;;;;;19.50;9.75;;;;;;;-8.56;69.97;102519.84;5018086;28;20039;-72
2022/12/04 02:30:57;;;;;;;20.95;10.20;;;;;;;-8.57;69.93;102520.66;4978643;28;20048;-70
2022/12/04 02:33:33;;;;;;;19.20;9.40;;;;;;;-8.65;70.82;102531.41;5001936;28;20507;-69
2022/12/04 02:36:04;;;;;;;15.88;8.65;;;;;;;-8.59;70.96;102535.22;5015241;28;20049;-67
2022/12/04 02:38:39;;;;;;;16.83;8.18;;;;;;;-8.64;70.18;102534.09;5019237;28;20040;-76
2022/12/04 02:41:04;;;;;;;16.83;8.27;;;;;;;-8.59;70.35;102531.75;5032469;28;20150;-73
2022/12/04 02:43:35;;;;;;;21.58;10.18;;;;;;;-8.77;71.05;102529.06;5036833;28;20032;-74
2022/12/04 02:46:05;;;;;;;13.25;6.85;;;;;;;-8.71;71.00;102532.00;5034763;28;20049;-74
2022/12/04 02:48:34;;;;;;;6.80;4.38;;;;;;;-8.61;71.11;102523.91;5019130;28;20044;-74
2022/12/04 02:51:03;;;;;;;16.60;7.50;;;;;;;-8.55;70.46;102531.97;5025779;28;20052;-74
2022/12/04 02:53:33;;;;;;;12.40;5.97;;;;;;;-8.69;70.66;102526.91;5035234;28;20501;-76
2022/12/04 02:56:05;;;;;;;17.40;8.25;;;;;;;-8.70;70.34;102528.63;5013555;28;20431;-74
2022/12/04 02:58:41;;;;;;;13.90;7.15;;;;;;;-8.61;70.37;102533.38;5014290;28;20122;-75
2022/12/04 03:01:22;;;;;;;17.08;9.10;;;;;;;-8.85;69.72;102532.97;4960377;28;20045;-73
2022/12/04 03:03:54;;;;;;;18.60;9.10;;;;;;;-8.96;70.73;102539.25;5004898;28;20055;-72
2022/12/04 03:06:21;;;;;;;9.68;4.72;;;;;;;-8.80;70.40;102536.66;4994395;28;20060;-72
2022/12/04 03:08:52;;;;;;;17.85;9.95;;;;;;;-8.98;70.36;102530.53;4993128;28;20046;-64
2022/12/04 03:11:17;;;;;;;12.02;6.75;;;;;;;-8.94;71.04;102533.38;5010932;28;20052;-63
2022/12/04 03:14:14;;;;;;;19.20;8.63;;;;;;;-8.88;70.43;102538.84;5002999;28;20049;-63
2022/12/04 03:16:41;;;;;;;8.60;5.00;;;;;;;-8.86;70.07;102550.16;4954534;28;20197;-64
2022/12/04 03:19:15;;;;;;;10.63;6.72;;;;;;;-8.86;69.98;102546.69;4968517;28;20064;-62
2022/12/04 03:21:46;;;;;;;13.73;6.85;;;;;;;-8.81;70.07;102534.91;4954219;28;20060;-63
2022/12/04 03:24:28;;;;;;;17.65;8.07;;;;;;;-8.96;70.34;102539.25;4949473;28;20046;-64
2022/12/04 03:27:17;;;;;;;20.60;9.73;;;;;;;-9.18;70.52;102542.38;4973918;28;20109;-64
2022/12/04 03:29:50;;;;;;;11.98;6.25;;;;;;;-9.20;70.75;102550.03;4973882;28;20051;-65
2022/12/04 03:32:33;;;;;;;6.07;4.22;;;;;;;-9.02;70.51;102536.31;4985628;28;20037;-65
2022/12/04 03:35:10;;;;;;;20.23;8.57;;;;;;;-9.17;71.13;102541.59;4976755;28;20512;-75
2022/12/04 03:37:44;;;;;;;21.35;10.18;;;;;;;-8.96;70.19;102550.50;4958144;28;20099;-75
2022/12/04 03:40:35;;;;;;;;;;;;;;;-8.83;69.35;102547.75;4988680;28;20081;-76
2022/12/04 03:43:05;;;;;;;21.92;10.85;;;;;;;-9.26;69.79;102541.09;4971051;28;19925;-74
2022/12/04 03:45:37;;;;;;;13.00;6.90;;;;;;;-9.35;70.61;102543.13;4965814;28;20049;-75
2022/12/04 03:48:13;;;;;;;11.52;6.68;;;;;;;-9.22;70.76;102549.06;4986025;28;20057;-74
2022/12/04 03:50:48;;;;;;;23.80;10.98;;;;;;;-9.55;71.37;102557.53;4983015;28;20125;-74
2022/12/04 03:53:19;;;;;;;21.90;10.38;;;;;;;-9.52;70.75;102551.66;4990578;28;20045;-74
2022/12/04 03:56:12;;;;;;;25.65;12.07;;;;;;;-9.38;70.96;102551.63;5014791;28;20033;-73
2022/12/04 03:58:42;;;;;;;14.07;7.93;;;;;;;-9.32;71.57;102559.69;5028692;28;20575;-73
2022/12/04 04:01:11;;;;;;;12.00;5.35;;;;;;;-9.19;71.46;102559.56;5034582;28;20052;-74
2022/12/04 04:03:43;;;;;;;14.70;6.55;;;;;;;-9.21;70.72;102561.19;5034531;28;20045;-75
2022/12/04 04:06:19;;;;;;;16.63;8.32;;;;;;;-9.31;70.42;102569.25;5017039;28;20052;-73
2022/12/04 04:08:48;;;;;;;22.90;9.73;;;;;;;-9.34;70.38;102570.75;5040375;28;20392;-73
2022/12/04 04:11:31;;;;;;;15.30;6.68;;;;;;;-9.06;71.03;102565.41;5042681;28;20086;-73
2022/12/04 04:25:15;;;;;;;18.13;7.15;;;;;;;-9.30;69.58;102571.00;4951526;28;20050;-74
2022/12/04 04:27:40;;;;;;;21.35;10.32;;;;;;;-9.39;69.80;102593.75;4963986;28;20133;-73
2022/12/04 04:30:06;;;;;;;9.13;5.57;;;;;;;-9.30;70.66;102568.44;4960570;28;20081;-74
2022/12/04 04:32:39;;;;;;;13.65;5.57;;;;;;;-9.15;70.37;102578.72;4956990;28;20042;-73
2022/12/04 04:35:18;;;;;;;14.85;6.80;;;;;;;-9.31;69.63;102576.97;4943518;28;20072;-75
2022/12/04 04:38:12;;;;;;;12.90;6.45;;;;;;;-9.30;69.46;102575.28;4940612;28;20444;-75
2022/12/04 04:40:57;;;;;;;15.90;8.70;;;;;;;-9.61;70.04;102577.84;4949525;28;20513;-73
2022/12/04 04:43:32;;;;;;;21.10;8.15;;;;;;;-9.51;70.14;102580.16;4946282;28;20040;-74
2022/12/04 04:46:03;;;;;;;14.73;7.35;;;;;;;-9.49;70.87;102591.47;4966539;28;20054;-74
2022/12/04 04:48:31;;;;;;;19.98;8.38;;;;;;;-9.57;69.83;102588.44;4957779;28;20038;-75
2022/12/04 04:50:58;;;;;;;9.75;5.68;;;;;;;-9.52;70.59;102588.69;4957137;28;20138;-75
2022/12/04 04:53:29;;;;;;;8.07;4.40;;;;;;;-9.47;70.58;102594.09;4959337;28;20043;-75
2022/12/04 04:55:54;;;;;;;18.98;8.75;;;;;;;-9.64;70.37;102593.16;4956277;28;20038;-74
2022/12/04 04:58:20;;;;;;;7.43;3.58;;;;;;;-9.57;71.04;102597.88;4958243;28;20092;-75
2022/12/04 05:01:34;;;;;;;15.35;7.18;;;;;;;-9.34;70.48;102605.22;5005155;28;20037;-73
2022/12/04 05:04:00;;;;;;;15.85;8.02;;;;;;;-9.35;70.17;102598.28;4974741;28;20057;-73
2022/12/04 05:06:24;;;;;;;13.95;7.18;;;;;;;-9.42;70.06;102603.91;4975207;28;20049;-72
2022/12/04 05:08:49;;;;;;;7.80;5.18;;;;;;;-9.31;69.37;102607.09;4980179;28;20107;-72
2022/12/04 05:11:15;;;;;;;14.45;6.57;;;;;;;-9.19;69.23;102592.28;4986954;28;20124;-75
2022/12/04 05:13:41;;;;;;;13.57;6.78;;;;;;;-9.34;68.30;102596.56;4960690;28;20041;-74
2022/12/04 05:16:09;;;;;;;19.58;6.95;;;;;;;-9.55;68.98;102599.75;4975359;28;20184;-64
2022/12/04 05:18:34;;;;;;;17.80;9.85;;;;;;;-9.51;68.86;102594.75;4968993;28;20038;-65
2022/12/04 05:21:04;;;;;;;11.88;6.00;;;;;;;-9.49;69.21;102594.03;4958599;28;20099;-64
2022/12/04 05:23:29;;;;;;;17.30;8.98;;;;;;;-9.49;69.18;102590.56;4974991;28;20136;-64
2022/12/04 05:26:04;;;;;;;12.90;5.93;;;;;;;-9.50;69.24;102587.09;4958966;28;20161;-74
2022/12/04 05:28:29;;;;;;;17.40;7.28;;;;;;;-9.32;70.04;102597.56;4962880;28;20050;-75
2022/12/04 05:30:58;;;;;;;20.17;8.55;;;;;;;-9.46;69.18;102589.03;4996950;28;20101;-73
2022/12/04 05:33:23;;;;;;;22.48;7.93;;;;;;;-9.49;69.86;102600.91;4962230;28;20046;-74
2022/12/04 05:36:06;;;;;;;18.17;9.55;;;;;;;-9.53;69.70;102607.56;4975502;28;20057;-75
2022/12/04 05:38:30;;;;;;;20.85;10.43;;;;;;;-9.65;69.03;102604.28;4975330;28;20053;-65
2022/12/04 05:41:03;;;;;;;13.27;6.88;;;;;;;-9.27;70.11;102607.38;5000646;28;20057;-65
2022/12/04 05:43:29;;;;;;;16.10;6.88;;;;;;;-9.19;69.20;102607.78;5015901;28;20040;-64
2022/12/04 05:45:54;;;;;;;16.70;6.95;;;;;;;-9.21;69.10;102605.09;4999991;28;20152;-67
2022/12/04 05:48:18;;;;;;;19.42;10.52;;;;;;;-9.42;69.15;102610.75;4999108;28;20128;-64
2022/12/04 05:50:43;;;;;;;12.98;5.60;;;;;;;-9.46;69.76;102601.94;5015132;28;20518;-65
2022/12/04 05:53:08;;;;;;;8.25;5.07;;;;;;;-9.41;69.83;102613.44;5015882;28;20119;-65
2022/12/04 05:55:32;;;;;;;16.25;6.60;;;;;;;-9.36;69.57;102613.69;4998436;28;20716;-63
2022/12/04 05:57:57;;;;;;;16.13;7.55;;;;;;;-9.36;69.35;102618.84;5022592;28;20584;-63
2022/12/04 06:00:22;;;;;;;16.00;8.25;;;;;;;-9.37;68.49;102612.81;4999134;28;20048;-63
2022/12/04 06:02:46;;;;;;;14.00;7.22;;;;;;;-9.33;68.98;102614.75;4997869;28;20497;-65
2022/12/04 06:05:11;;;;;;;14.05;6.40;;;;;;;-9.04;68.83;102608.63;5031927;28;20117;-63
2022/12/04 06:07:36;;;;;;;19.25;7.40;;;;;;;-9.04;68.70;102608.63;5035899;28;20139;-65
2022/12/04 06:10:01;;;;;;;17.42;7.15;;;;;;;-8.86;68.51;102622.56;5034184;28;20109;-65
2022/12/04 06:12:29;;;;;;;24.23;10.00;;;;;;;-9.02;67.66;102611.28;5036138;28;20044;-64
2022/12/04 06:14:53;;;;;;;12.18;6.22;;;;;;;-8.86;67.30;102612.22;5035609;28;20051;-65
2022/12/04 06:17:18;;;;;;;14.07;6.00;;;;;;;-8.77;67.08;102608.34;5016869;28;20037;-66
2022/12/04 06:19:42;;;;;;;9.32;5.70;;;;;;;-8.80;66.63;102597.00;5007677;28;20203;-65
2022/12/04 06:22:07;;;;;;;20.33;8.70;;;;;;;-8.86;66.55;102606.16;5031181;28;20052;-65
2022/12/04 06:24:32;;;;;;;13.05;6.97;;;;;;;-8.90;66.50;102617.13;5010422;28;20044;-66
2022/12/04 06:26:57;;;;;;;13.40;7.35;;;;;;;-8.82;66.63;102621.03;5028732;28;20067;-66
2022/12/04 06:29:22;;;;;;;19.33;9.02;;;;;;;-8.82;66.23;102621.03;5035438;28;20045;-74
2022/12/04 06:31:47;;;;;;;21.77;9.30;;;;;;;-9.00;66.33;102617.41;5035968;28;20044;-76
2022/12/04 06:34:11;;;;;;;14.95;7.65;;;;;;;-9.01;66.82;102629.44;5005019;28;20134;-76
2022/12/04 06:36:36;;;;;;;19.75;6.75;;;;;;;-8.90;67.08;102617.13;5034864;28;20091;-63
2022/12/04 06:39:01;;;;;;;12.48;5.25;;;;;;;-8.64;67.40;102605.59;5017268;28;20071;-65
2022/12/04 06:41:27;;;;;;;29.20;9.15;;;;;;;-8.64;67.41;102614.25;5035326;28;20137;-64
2022/12/04 06:43:53;;;;;;;17.27;8.05;;;;;;;-8.64;66.41;102611.66;5036510;28;20514;-65
2022/12/04 06:46:23;;;;;;;15.77;8.13;;;;;;;-8.78;66.08;102617.78;5036328;28;20049;-65
2022/12/04 06:48:49;;;;;;;17.08;8.25;;;;;;;-8.60;66.04;102647.25;4987116;28;20044;-73
2022/12/04 06:51:16;;;;;;;10.80;6.40;;;;;;;-8.61;65.79;102627.34;5027108;28;20040;-66
2022/12/04 06:53:41;;;;;;;13.52;7.32;;;;;;;-8.55;65.76;102616.44;5034842;28;20051;-68
2022/12/04 06:56:09;;;;;;;18.58;8.50;;;;;;;-8.54;65.67;102624.28;5036054;28;20040;-66
2022/12/04 06:58:34;;;;;;;12.80;6.13;;;;;;;-8.38;65.85;102625.09;5036663;28;20048;-65
2022/12/04 07:01:08;;;;;;;17.40;7.53;;;;;;;-8.19;65.35;102638.16;5037471;28;20040;-66
2022/12/04 07:03:33;;;;;;;11.67;6.10;;;;;;;-7.89;64.65;102623.28;5002439;28;20071;-65
2022/12/04 07:05:57;;;;;;;17.45;8.82;;;;;;;-8.42;64.19;102624.03;5034775;28;20298;-63
2022/12/04 07:08:22;;;;;;;15.70;8.00;;;;;;;-8.45;64.12;102627.34;5034953;28;20036;-63
2022/12/04 07:10:47;;;;;;;17.10;8.27;;;;;;;-8.42;64.33;102634.38;5035016;28;20098;-64
2022/12/04 07:13:11;;;;;;;11.35;5.28;;;;;;;-8.12;64.67;102630.75;5034943;28;20048;-64
2022/12/04 07:15:37;;;;;;;17.55;8.48;;;;;;;-8.37;63.72;102643.28;5035790;28;20035;-64
2022/12/04 07:18:03;;;;;;;14.32;7.13;;;;;;;-8.13;64.12;102638.47;5036708;28;20052;-65
2022/12/04 07:20:28;;;;;;;14.27;6.63;;;;;;;-7.97;63.69;102641.03;5039806;28;20036;-73
2022/12/04 07:22:53;;;;;;;6.05;3.58;;;;;;;-7.61;64.09;102641.09;5021002;28;20102;-71
2022/12/04 07:25:18;;;;;;;13.65;6.97;;;;;;;-7.90;62.75;102652.59;5039885;28;20786;-73
2022/12/04 07:27:43;;;;;;;9.95;5.90;;;;;;;-7.60;63.17;102641.19;5038882;28;20044;-72
2022/12/04 07:30:08;;;;;;;15.45;8.05;;;;;;;-7.87;62.85;102645.84;5038656;28;20040;-74
2022/12/04 07:32:33;;;;;;;19.42;9.32;;;;;;;-7.76;62.60;102642.13;5028239;28;20037;-75
2022/12/04 07:34:58;;;;;;;13.60;7.03;;;;;;;-7.93;62.47;102658.50;5034524;28;20047;-73
2022/12/04 07:37:22;;;;;;;16.60;7.15;;;;;;;-7.80;62.20;102644.50;5035468;28;20040;-73
2022/12/04 07:39:50;;;;;;;14.65;7.28;;;;;;;-7.65;62.27;102658.19;5035180;28;20041;-74
2022/12/04 07:42:15;;;;;;;14.43;7.03;;;;;;;-7.36;62.65;102659.66;5037983;28;20044;-72
2022/12/04 07:44:40;;;;;;;16.98;7.68;;;;;;;-7.19;62.22;102647.50;5039346;28;20082;-73
2022/12/04 07:47:05;;;;;;;16.88;6.97;;;;;;;-7.01;62.08;102653.59;5038975;28;20139;-73
2022/12/04 07:49:30;;;;;;;14.70;7.00;;;;;;;-6.62;63.48;102657.16;5041689;28;20047;-76
2022/12/04 07:51:55;;;;;;;13.60;6.32;;;;;;;-5.73;61.65;102649.84;5026091;28;20165;-75
2022/12/04 07:54:20;;;;;;;12.65;6.57;;;;;;;-4.90;59.66;102636.81;5043864;28;20850;-73
2022/12/04 07:56:46;;;;;;;16.23;6.85;;;;;;;-4.02;58.11;102644.44;5025267;28;20048;-74
2022/12/04 07:59:11;;;;;;;9.77;5.35;;;;;;;-3.17;54.34;102643.88;5023599;28;20052;-73
2022/12/04 08:01:36;;;;;;;15.73;8.32;;;;;;;-2.74;50.27;102639.16;5042751;28;20052;-74
2022/12/04 08:04:02;;;;;;;13.48;6.75;;;;;;;-2.26;48.83;102636.25;5018258;28;20041;-72
2022/12/04 08:06:28;;;;;;;14.27;5.00;;;;;;;-1.67;52.11;102634.34;5011993;28;20049;-76
2022/12/04 08:08:53;;;;;;;10.45;6.25;;;;;;;-1.48;49.67;102626.16;4984280;28;20048;-75
2022/12/04 08:11:21;;;;;;;16.88;7.40;;;;;;;-1.42;46.49;102626.28;5029580;28;20047;-79
2022/12/04 08:13:47;;;;;;;15.07;7.10;;;;;;;-1.29;48.23;102623.13;5020481;28;20064;-74
2022/12/04 08:16:13;;;;;;;11.00;5.75;;;;;;;-1.46;49.64;102633.16;5039047;28;20125;-74
2022/12/04 08:18:40;;;;;;;15.07;7.07;;;;;;;-1.87;50.81;102626.88;5039290;28;20052;-74
2022/12/04 08:21:08;;;;;;;13.25;7.10;;;;;;;-2.31;50.83;102641.31;5039848;28;20048;-73
2022/12/04 08:23:33;;;;;;;13.90;6.70;;;;;;;-2.29;50.86;102641.38;5041248;28;20503;-73
2022/12/04 08:26:00;;;;;;;10.27;5.80;;;;;;;-2.10;49.51;102632.31;5041510;28;20048;-75
2022/12/04 08:28:26;;;;;;;11.50;4.50;;;;;;;-1.72;50.40;102634.25;5039262;28;20048;-73
2022/12/04 08:30:51;;;;;;;17.20;7.28;;;;;;;-2.04;48.59;102636.00;5020603;28;20411;-74
2022/12/04 08:33:16;;;;;;;11.30;6.20;;;;;;;-2.13;48.13;102629.59;5037818;28;20036;-76
2022/12/04 08:35:42;;;;;;;13.38;6.93;;;;;;;-2.36;46.32;102634.19;5037671;28;20131;-73
2022/12/04 08:38:07;;;;;;;13.65;7.32;;;;;;;-2.23;47.37;102631.06;5016115;28;20045;-76
2022/12/04 08:40:32;;;;;;;10.07;5.22;;;;;;;-1.86;48.58;102638.22;5027233;28;20058;-75
2022/12/04 08:42:57;;;;;;;12.93;6.53;;;;;;;-1.72;46.18;102638.59;5037172;28;20457;-66
2022/12/04 08:45:23;;;;;;;21.40;8.45;;;;;;;-1.81;44.99;102626.16;4997153;28;20396;-64
2022/12/04 08:47:49;;;;;;;9.90;5.22;;;;;;;-1.74;45.54;102632.44;5000537;28;20463;-63
2022/12/04 08:50:14;;;;;;;12.60;6.57;;;;;;;-1.88;46.44;102624.22;5037323;28;20466;-64
2022/12/04 08:52:41;;;;;;;12.32;6.20;;;;;;;-2.00;47.18;102636.94;5036878;28;20032;-65
2022/12/04 08:55:06;;;;;;;10.20;5.40;;;;;;;-2.04;46.96;102629.88;5038672;28;20050;-65
2022/12/04 08:57:31;;;;;;;15.20;6.90;;;;;;;-2.65;45.64;102629.00;5020238;28;20427;-66
2022/12/04 08:59:56;;;;;;;12.95;7.57;;;;;;;-2.88;47.19;102624.81;5019691;28;20048;-64
2022/12/04 09:02:22;;;;;;;12.60;5.85;;;;;;;-3.01;48.01;102622.66;5037453;28;20043;-64
2022/12/04 09:04:47;;;;;;;10.18;5.70;;;;;;;-2.77;48.80;102615.56;5019533;28;20056;-64
2022/12/04 09:07:13;;;;;;;14.75;6.43;;;;;;;-2.83;47.04;102620.63;5037093;28;20093;-65
2022/12/04 09:09:39;;;;;;;17.15;7.43;;;;;;;-3.17;45.06;102625.63;5036666;28;20410;-64
2022/12/04 09:12:04;;;;;;;14.27;6.63;;;;;;;-3.03;45.84;102624.31;5018898;28;20106;-66
2022/12/04 09:14:29;;;;;;;9.18;4.78;;;;;;;-2.48;48.07;102613.81;5036975;28;20048;-69
2022/12/04 09:16:54;;;;;;;11.05;6.32;;;;;;;-2.33;46.42;102613.38;5036549;28;20044;-67
2022/12/04 09:19:19;;;;;;;9.75;5.40;;;;;;;-2.24;44.89;102608.41;5018570;28;20044;-64
2022/12/04 09:21:45;;;;;;;12.18;5.72;;;;;;;-1.79;44.68;102614.00;5036649;28;20055;-65
2022/12/04 09:24:09;;;;;;;14.27;6.70;;;;;;;-1.76;43.48;102610.59;5036399;28;20032;-65
2022/12/04 09:26:34;;;;;;;7.03;4.00;;;;;;;-1.56;44.81;102599.78;5036378;28;20048;-65
2022/12/04 09:29:01;;;;;;;8.77;5.93;;;;;;;-1.88;43.14;102617.25;5036176;28;20121;-64
2022/12/04 09:31:27;;;;;;;11.75;6.28;;;;;;;-2.38;42.95;102599.31;5035946;28;20036;-65
2022/12/04 09:33:52;;;;;;;10.63;5.80;;;;;;;-2.77;43.88;102614.69;5018831;28;20028;-74
2022/12/04 09:36:17;;;;;;;10.57;4.75;;;;;;;-2.63;45.45;102606.44;5036639;28;20470;-74
2022/12/04 09:38:44;;;;;;;11.68;5.85;;;;;;;-3.05;44.64;102618.19;5015998;28;20048;-74
2022/12/04 09:41:36;;;;;;;20.15;7.32;;;;;;;-3.21;43.78;102621.13;5032691;28;20441;-74
2022/12/04 09:44:07;;;;;;;14.85;6.85;;;;;;;-2.70;44.34;102606.19;5036645;28;20037;-75
2022/12/04 09:46:32;;;;;;;10.23;4.80;;;;;;;-2.78;44.31;102612.91;5020689;28;20075;-74
2022/12/04 09:49:03;;;;;;;12.95;6.03;;;;;;;-3.46;43.49;102612.50;5037918;28;20083;-75
2022/12/04 09:51:31;;;;;;;16.45;7.10;;;;;;;-3.38;43.66;102610.13;5037520;28;20384;-75
2022/12/04 09:54:04;;;;;;;10.13;5.05;;;;;;;-2.66;44.98;102602.84;5015886;28;20476;-74
2022/12/04 09:56:31;;;;;;;11.20;5.90;;;;;;;-2.52;42.93;102600.63;5030823;28;20054;-73
2022/12/04 09:59:10;;;;;;;10.20;6.00;;;;;;;-2.61;41.52;102607.38;4988541;28;20435;-74
2022/12/04 10:01:49;;;;;;;9.25;4.38;;;;;;;-1.98;43.27;102612.63;5016015;28;20511;-74
2022/12/04 10:04:16;;;;;;;13.10;5.43;;;;;;;-1.84;40.96;102600.81;5015425;28;20503;-74
2022/12/04 10:07:00;;;;;;;9.63;5.47;;;;;;;-1.56;41.99;102607.63;5016026;28;20047;-74
2022/12/04 10:09:37;;;;;;;9.05;5.03;;;;;;;-1.99;42.01;102603.00;4998915;28;20124;-74
2022/12/04 10:12:15;;;;;;;12.77;5.97;;;;;;;-2.22;42.07;102604.09;5016877;28;20048;-74
2022/12/04 10:14:49;;;;;;;12.77;5.50;;;;;;;-2.18;43.25;102603.38;5017383;28;20068;-75
2022/12/04 10:17:23;;;;;;;12.25;5.10;;;;;;;-2.02;42.46;102602.03;5015280;28;20560;-75
2022/12/04 10:20:12;;;;;;;7.17;4.13;;;;;;;-2.13;43.31;102596.50;5016908;28;20151;-74
2022/12/04 10:22:50;;;;;;;12.48;5.55;;;;;;;-3.10;42.87;102598.88;5016689;28;20043;-76
2022/12/04 10:25:19;;;;;;;11.27;5.70;;;;;;;-3.30;43.92;102599.13;5016383;28;20503;-75
2022/12/04 10:27:51;;;;;;;12.82;6.15;;;;;;;-3.49;44.69;102601.97;4975957;28;20484;-74
2022/12/04 10:30:22;;;;;;;11.07;5.60;;;;;;;-3.35;45.15;102594.59;5008835;28;20459;-74
2022/12/04 10:32:55;;;;;;;11.90;4.80;;;;;;;-3.57;45.04;102595.63;5014790;28;20041;-74
2022/12/04 10:35:28;;;;;;;10.35;5.63;;;;;;;-3.83;45.63;102601.66;4990912;28;20156;-73
2022/12/04 10:38:01;;;;;;;12.00;6.28;;;;;;;-4.25;47.09;102599.34;4993713;28;20065;-73
2022/12/04 10:40:34;;;;;;;6.85;4.25;;;;;;;-4.45;46.96;102592.53;5016684;28;20411;-74
2022/12/04 10:43:35;;;;;;;12.23;5.78;;;;;;;-4.90;47.92;102584.78;5016713;28;20072;-73
2022/12/04 10:46:00;;;;;;;10.27;4.90;;;;;;;-4.90;48.59;102607.31;5016432;28;20049;-74
2022/12/04 10:48:37;;;;;;;13.90;4.63;;;;;;;-4.77;48.29;102584.41;5025106;28;20040;-74
2022/12/04 10:51:03;;;;;;;15.60;4.90;;;;;;;-4.68;47.47;102590.78;5020325;28;20086;-75
2022/12/04 10:53:34;;;;;;;9.63;4.15;;;;;;;-4.71;48.55;102588.06;4998484;28;20466;-75
2022/12/04 10:56:09;;;;;;;10.18;3.55;;;;;;;-4.79;48.75;102591.28;5015242;28;20103;-64
2022/12/04 10:58:34;;;;;;;7.20;2.80;;;;;;;-5.08;48.72;102588.38;5007539;28;20077;-65
2022/12/04 11:01:06;;;;;;;5.65;4.40;;;;;;;-5.24;49.80;102594.69;5034599;28;20068;-64
2022/12/04 11:03:31;;;;;;;11.20;4.30;;;;;;;-5.13;48.60;102586.50;5034763;28;20044;-67
2022/12/04 11:06:03;;;;;;;9.20;4.40;;;;;;;-5.18;48.69;102597.53;5016859;28;20138;-68
2022/12/04 11:08:43;;;;;;;5.63;3.50;;;;;;;-5.35;49.73;102596.88;5034564;28;20044;-67
2022/12/04 11:11:12;;;;;;;8.38;4.30;;;;;;;-5.62;50.74;102591.41;5033525;28;20048;-66
2022/12/04 11:13:39;;;;;;;6.72;3.80;;;;;;;-5.43;50.09;102581.78;5034562;28;20068;-66
2022/12/04 11:16:05;;;;;;;7.38;4.40;;;;;;;-5.61;50.26;102590.59;5034304;28;20044;-66
2022/12/04 11:18:32;;;;;;;9.50;4.78;;;;;;;-5.59;50.76;102596.75;5034874;28;20059;-67
2022/12/04 11:21:02;;;;;;;6.95;4.63;;;;;;;-5.64;50.69;102589.56;5034536;28;20194;-67
2022/12/04 11:23:32;;;;;;;10.50;5.30;;;;;;;-5.74;51.11;102580.50;5017045;28;20135;-73
2022/12/04 11:25:59;;;;;;;7.40;3.97;;;;;;;-5.78;51.40;102583.84;5034285;28;20478;-72
2022/12/04 11:28:32;;;;;;;8.55;3.97;;;;;;;-5.68;51.70;102588.59;5034884;28;20041;-73
2022/12/04 11:31:01;;;;;;;6.50;2.92;;;;;;;-5.49;51.58;102583.31;4981531;28;20040;-72
2022/12/04 11:33:37;;;;;;;8.07;4.45;;;;;;;-5.65;51.66;102586.13;5030362;28;20037;-74
2022/12/04 11:36:15;;;;;;;7.30;4.13;;;;;;;-5.55;51.00;102574.38;5031584;28;20075;-72